Monday, June 25, 2018, 7:24 PM GMT
Back to Local

CWQP, Point Petre , Ont.

Location: , , Canada Lat: 43.833
Local Time: 7:24 PM GMT (19:24 GMT) Lon: -77.15
Time Zone: GMT Elev: 259 ft

Show me the last for .
Show Coded

Time T Td Feel RH Dir Speed Gust Alt SLP Vis Weather Sky Remarks
2018-06-25 19:00 68 53 - 59 160° 12 - - 30.18 0 None
2018-06-25 18:00 73 43 - 34 360° 10 - - 30.17 0 None
2018-06-25 17:00 71 39 - 31 330° 9 - - 30.17 0 None
2018-06-25 16:00 66 52 - 59 310° 8 - - 30.17 0 None
2018-06-25 15:00 67 47 - 49 310° 10 - - 30.17 0 None
2018-06-25 14:00 64 49 - 58 330° 9 - - 30.16 0 None
2018-06-25 13:00 62 48 - 59 350° 13 - - 30.13 0 Peak wind: 19 mph (17 kts) from 0° at 06 min
2018-06-25 12:00 58 47 - 65 360° 14 - - 30.11 0 Peak wind: 19 mph (17 kts) from 350° at 33 min
2018-06-25 11:00 55 47 - 75 360° 13 - - 30.09 0 None
2018-06-25 10:00 53 48 - 83 360° 12 - - 30.06 0 None
2018-06-25 09:00 54 50 - 87 360° 10 - - 30.03 0 None
2018-06-25 08:00 55 53 - 91 340° 9 - - 30.01 0 None
2018-06-25 07:00 56 53 - 91 340° 7 - - 30.01 0 None
2018-06-25 06:00 57 54 - 90 340° 9 - - 30.01 0 None
2018-06-25 05:00 58 56 - 91 340° 6 - - 30.00 0 None
2018-06-25 04:00 59 57 - 93 30° 5 - - 29.98 0 Peak wind: 19 mph (17 kts) from 0° at 07 min
1-hr Precip Total: 0.03"
2018-06-25 03:00 63 57 - 82 10° 14 21 - 29.97 0 Peak wind: 20 mph (18 kts) from 10° at 51 min
2018-06-25 02:00 62 60 - 95 310° 9 - - 29.94 0 None
2018-06-25 01:00 62 59 - 92 300° 8 - - 29.92 0 None
2018-06-24 23:00 63 60 - 92 300° 7 - - 29.90 0 None
2018-06-24 22:00 63 61 - 91 290° 7 - - 29.88 0 None
2018-06-24 21:00 66 61 - 84 300° 2 - - 29.87 0 None
2018-06-24 20:00 66 61 - 84 80° 6 - - 29.85 0 1-hr Precip Total: 0.02"

Support USWX by starting your Amazon purchase here.